createdAt,value
2017-11-18T00:00:06.720Z,1013.25
2017-11-18T00:01:06.713Z,1013.23
2017-11-18T00:02:06.704Z,1013.24
2017-11-18T00:03:06.699Z,1013.29
2017-11-18T00:04:06.692Z,1013.27
2017-11-18T00:05:06.684Z,1013.22
2017-11-18T00:06:06.675Z,1013.25
2017-11-18T00:07:06.669Z,1013.23
2017-11-18T00:08:06.661Z,1013.21
2017-11-18T00:09:06.656Z,1013.22
2017-11-18T00:10:06.649Z,1013.21
2017-11-18T00:11:06.640Z,1013.18
2017-11-18T00:12:06.633Z,1013.14
2017-11-18T00:13:06.626Z,1013.12
2017-11-18T00:14:06.617Z,1013.11
2017-11-18T00:15:06.620Z,1013.07
2017-11-18T00:16:06.608Z,1013.10
2017-11-18T00:17:06.597Z,1013.08
2017-11-18T00:18:06.590Z,1013.09
2017-11-18T00:19:06.582Z,1013.08
2017-11-18T00:20:06.576Z,1013.04
2017-11-18T00:21:06.569Z,1013.07
2017-11-18T00:22:06.562Z,1013.08
2017-11-18T00:23:06.555Z,1013.02
2017-11-18T00:24:06.547Z,1013.07
2017-11-18T00:25:06.541Z,1013.05
2017-11-18T00:26:06.532Z,1013.02
2017-11-18T00:27:06.526Z,1013.07
2017-11-18T00:28:06.519Z,1013.05
2017-11-18T00:29:06.511Z,1013.04
2017-11-18T00:30:06.504Z,1013.00
2017-11-18T00:31:06.495Z,1013.00
2017-11-18T00:32:06.489Z,1012.99
2017-11-18T00:33:06.483Z,1012.99
2017-11-18T00:34:06.475Z,1012.99
2017-11-18T00:35:06.467Z,1013.03
2017-11-18T00:36:06.458Z,1012.97
2017-11-18T00:37:06.454Z,1012.99
2017-11-18T00:38:06.445Z,1013.03
2017-11-18T00:39:06.437Z,1013.02
2017-11-18T00:40:06.431Z,1013.00
2017-11-18T00:41:06.422Z,1013.00
2017-11-18T00:42:06.414Z,1012.95
2017-11-18T00:43:06.409Z,1012.92
2017-11-18T00:44:06.401Z,1012.90
2017-11-18T00:45:06.393Z,1012.88
2017-11-18T00:46:06.386Z,1012.83
2017-11-18T00:47:06.379Z,1012.82
2017-11-18T00:48:06.371Z,1012.79
2017-11-18T00:49:06.365Z,1012.80
2017-11-18T00:50:06.357Z,1012.82
2017-11-18T00:51:06.350Z,1012.83
2017-11-18T00:52:06.342Z,1012.81
2017-11-18T00:53:06.344Z,1012.79
2017-11-18T00:54:06.327Z,1012.73
2017-11-18T00:55:06.320Z,1012.72
2017-11-18T00:56:06.313Z,1012.72
2017-11-18T00:57:06.306Z,1012.64
2017-11-18T00:58:06.302Z,1012.61
2017-11-18T00:59:06.292Z,1012.59
2017-11-18T01:00:06.286Z,1012.56
2017-11-18T01:01:06.276Z,1012.52
2017-11-18T01:02:06.269Z,1012.55
2017-11-18T01:03:06.263Z,1012.58
2017-11-18T01:04:06.255Z,1012.50
2017-11-18T01:05:06.250Z,1012.48
2017-11-18T01:06:06.241Z,1012.48
2017-11-18T01:07:06.233Z,1012.44
2017-11-18T01:08:06.228Z,1012.44
2017-11-18T01:09:06.219Z,1012.45
2017-11-18T01:10:06.211Z,1012.49
2017-11-18T01:11:06.204Z,1012.54
2017-11-18T01:12:06.197Z,1012.51
2017-11-18T01:13:06.190Z,1012.51
2017-11-18T01:14:06.181Z,1012.48
2017-11-18T01:15:06.175Z,1012.44
2017-11-18T01:16:06.170Z,1012.40
2017-11-18T01:17:06.162Z,1012.37
2017-11-18T01:18:06.154Z,1012.44
2017-11-18T01:19:06.146Z,1012.45
2017-11-18T01:20:06.141Z,1012.41
2017-11-18T01:21:06.135Z,1012.41
2017-11-18T01:22:06.125Z,1012.42
2017-11-18T01:23:06.126Z,1012.37
2017-11-18T01:24:06.113Z,1012.36
2017-11-18T01:25:06.105Z,1012.28
2017-11-18T01:26:06.098Z,1012.31
2017-11-18T01:27:06.089Z,1012.32
2017-11-18T01:28:06.086Z,1012.30
2017-11-18T01:29:06.078Z,1012.33
2017-11-18T01:30:06.074Z,1012.29
2017-11-18T01:31:06.062Z,1012.27
2017-11-18T01:32:06.058Z,1012.26
2017-11-18T01:33:06.049Z,1012.27
2017-11-18T01:34:06.041Z,1012.24
2017-11-18T01:35:06.039Z,1012.27
2017-11-18T01:36:06.028Z,1012.22
2017-11-18T01:37:06.022Z,1012.22
2017-11-18T01:38:06.014Z,1012.17
2017-11-18T01:39:06.013Z,1012.11
2017-11-18T01:40:06.000Z,1012.07
2017-11-18T01:41:05.994Z,1012.15
2017-11-18T01:42:05.986Z,1012.08
2017-11-18T01:43:05.981Z,1012.13
2017-11-18T01:44:05.973Z,1012.14
2017-11-18T01:45:05.966Z,1012.11
2017-11-18T01:46:05.957Z,1012.11
2017-11-18T01:47:05.950Z,1012.09
2017-11-18T01:48:05.944Z,1012.07
2017-11-18T01:49:05.938Z,1012.05
2017-11-18T01:50:05.929Z,1012.04
2017-11-18T01:51:05.926Z,1012.03
2017-11-18T01:52:05.917Z,1012.00
2017-11-18T01:53:05.910Z,1011.94
2017-11-18T01:54:05.902Z,1011.95
2017-11-18T01:55:05.895Z,1011.95
2017-11-18T01:56:05.889Z,1011.93
2017-11-18T01:57:05.885Z,1011.95
2017-11-18T01:58:05.877Z,1011.93
2017-11-18T01:59:05.867Z,1011.91
2017-11-18T02:00:05.861Z,1011.86
2017-11-18T02:01:05.855Z,1011.91
2017-11-18T02:02:05.848Z,1011.92
2017-11-18T02:03:05.845Z,1011.86
2017-11-18T02:04:05.833Z,1011.89
2017-11-18T02:05:05.826Z,1011.87
2017-11-18T02:06:05.818Z,1011.86
2017-11-18T02:07:05.812Z,1011.86
2017-11-18T02:08:05.805Z,1011.86
2017-11-18T02:09:05.799Z,1011.80
2017-11-18T02:10:05.791Z,1011.77
2017-11-18T02:11:05.784Z,1011.72
2017-11-18T02:12:05.778Z,1011.72
2017-11-18T02:13:05.773Z,1011.65
2017-11-18T02:14:05.763Z,1011.68
2017-11-18T02:15:05.757Z,1011.67
2017-11-18T02:16:05.750Z,1011.63
2017-11-18T02:17:05.744Z,1011.65
2017-11-18T02:18:05.737Z,1011.62
2017-11-18T02:19:05.728Z,1011.61
2017-11-18T02:20:05.723Z,1011.57
2017-11-18T02:21:05.717Z,1011.56
2017-11-18T02:22:05.709Z,1011.53
2017-11-18T02:23:05.707Z,1011.50
2017-11-18T02:24:05.700Z,1011.55
2017-11-18T02:25:05.700Z,1011.48
2017-11-18T02:26:05.680Z,1011.43
2017-11-18T02:27:05.674Z,1011.47
2017-11-18T02:28:05.666Z,1011.45
2017-11-18T02:29:05.660Z,1011.45
2017-11-18T02:30:05.656Z,1011.45
2017-11-18T02:31:05.645Z,1011.36
2017-11-18T02:32:05.642Z,1011.43
2017-11-18T02:33:05.636Z,1011.41
2017-11-18T02:34:05.627Z,1011.41
2017-11-18T02:35:05.619Z,1011.40
2017-11-18T02:36:05.613Z,1011.40
2017-11-18T02:37:05.611Z,1011.40
2017-11-18T02:38:05.598Z,1011.38
2017-11-18T02:39:05.592Z,1011.34
2017-11-18T02:40:05.583Z,1011.31
2017-11-18T02:41:05.577Z,1011.25
2017-11-18T02:42:05.572Z,1011.31
2017-11-18T02:43:05.564Z,1011.32
2017-11-18T02:44:05.558Z,1011.28
2017-11-18T02:45:05.550Z,1011.33
2017-11-18T02:46:05.550Z,1011.31
2017-11-18T02:47:05.535Z,1011.30
2017-11-18T02:48:05.537Z,1011.26
2017-11-18T02:49:05.524Z,1011.26
2017-11-18T02:50:05.514Z,1011.22
2017-11-18T02:51:05.507Z,1011.21
2017-11-18T02:52:05.502Z,1011.21
2017-11-18T02:53:05.497Z,1011.17
2017-11-18T02:54:05.489Z,1011.18
2017-11-18T02:55:05.480Z,1011.18
2017-11-18T02:56:05.483Z,1011.12
2017-11-18T02:57:05.467Z,1011.12
2017-11-18T02:58:05.460Z,1011.07
2017-11-18T02:59:05.453Z,1011.08
2017-11-18T03:00:05.447Z,1011.05
2017-11-18T03:01:05.439Z,1011.04
2017-11-18T03:02:05.433Z,1010.99
2017-11-18T03:03:05.427Z,1011.00
2017-11-18T03:04:05.420Z,1011.00
2017-11-18T03:05:05.413Z,1011.01
2017-11-18T03:06:05.406Z,1011.02
2017-11-18T03:07:05.399Z,1010.98
2017-11-18T03:08:05.393Z,1010.96
2017-11-18T03:09:05.386Z,1011.00
2017-11-18T03:10:05.378Z,1010.98
2017-11-18T03:11:05.371Z,1010.99
2017-11-18T03:12:05.366Z,1010.96
2017-11-18T03:13:05.358Z,1010.91
2017-11-18T03:14:05.351Z,1010.87
2017-11-18T03:15:05.345Z,1010.91
2017-11-18T03:16:05.341Z,1010.90
2017-11-18T03:17:05.332Z,1010.92
2017-11-18T03:18:05.328Z,1010.87
2017-11-18T03:19:05.317Z,1010.89
2017-11-18T03:20:05.310Z,1010.89
2017-11-18T03:21:05.303Z,1010.87
2017-11-18T03:22:05.296Z,1010.83
2017-11-18T03:23:05.289Z,1010.88
2017-11-18T03:24:05.283Z,1010.89
2017-11-18T03:25:05.276Z,1010.86
2017-11-18T03:26:05.270Z,1010.84
2017-11-18T03:27:05.263Z,1010.86
2017-11-18T03:28:05.256Z,1010.83
2017-11-18T03:29:05.249Z,1010.88
2017-11-18T03:30:05.243Z,1010.86
2017-11-18T03:31:05.238Z,1010.84
2017-11-18T03:32:05.230Z,1010.85
2017-11-18T03:33:05.224Z,1010.78
2017-11-18T03:34:05.216Z,1010.82
2017-11-18T03:35:05.215Z,1010.80
2017-11-18T03:36:05.201Z,1010.80
2017-11-18T03:37:05.196Z,1010.82
2017-11-18T03:38:05.189Z,1010.80
2017-11-18T03:39:05.183Z,1010.77
2017-11-18T03:40:05.177Z,1010.75
2017-11-18T03:41:05.169Z,1010.77
2017-11-18T03:42:05.161Z,1010.70
2017-11-18T03:43:05.155Z,1010.75
2017-11-18T03:44:05.149Z,1010.74
2017-11-18T03:45:05.143Z,1010.71
2017-11-18T03:46:05.136Z,1010.71
2017-11-18T03:47:05.131Z,1010.70
2017-11-18T03:48:05.121Z,1010.72
2017-11-18T03:49:05.116Z,1010.72
2017-11-18T03:50:05.116Z,1010.73
2017-11-18T03:51:05.102Z,1010.72
2017-11-18T03:52:05.095Z,1010.71
2017-11-18T03:53:05.090Z,1010.70
2017-11-18T03:54:05.081Z,1010.69
2017-11-18T03:55:05.075Z,1010.74
2017-11-18T03:56:05.069Z,1010.67
2017-11-18T03:57:05.063Z,1010.63
2017-11-18T03:58:05.057Z,1010.65
2017-11-18T03:59:05.049Z,1010.62
2017-11-18T04:00:05.052Z,1010.64
2017-11-18T04:01:05.035Z,1010.58
2017-11-18T04:02:05.028Z,1010.54
2017-11-18T04:03:05.023Z,1010.55
2017-11-18T04:04:05.017Z,1010.50
2017-11-18T04:05:05.010Z,1010.53
2017-11-18T04:06:05.003Z,1010.53
2017-11-18T04:07:04.996Z,1010.50
2017-11-18T04:08:04.990Z,1010.52
2017-11-18T04:09:04.984Z,1010.50
2017-11-18T04:10:04.976Z,1010.47
2017-11-18T04:11:04.978Z,1010.42
2017-11-18T04:12:04.963Z,1010.46
2017-11-18T04:13:04.956Z,1010.48
2017-11-18T04:14:04.950Z,1010.43
2017-11-18T04:15:04.944Z,1010.44
2017-11-18T04:16:04.936Z,1010.48
2017-11-18T04:17:04.931Z,1010.40
2017-11-18T04:18:04.923Z,1010.43
2017-11-18T04:19:04.917Z,1010.40
2017-11-18T04:20:04.909Z,1010.37
2017-11-18T04:21:04.904Z,1010.36
2017-11-18T04:22:04.895Z,1010.31
2017-11-18T04:23:04.894Z,1010.32
2017-11-18T04:24:04.883Z,1010.29
2017-11-18T04:25:04.877Z,1010.27
2017-11-18T04:26:04.874Z,1010.28
2017-11-18T04:27:04.864Z,1010.25
2017-11-18T04:28:04.857Z,1010.24
2017-11-18T04:29:04.860Z,1010.28
2017-11-18T04:30:04.843Z,1010.24
2017-11-18T04:31:04.837Z,1010.21
2017-11-18T04:32:04.832Z,1010.25
2017-11-18T04:33:04.825Z,1010.23
2017-11-18T04:34:04.817Z,1010.23
2017-11-18T04:35:04.810Z,1010.23
2017-11-18T04:36:04.804Z,1010.22
2017-11-18T04:37:04.797Z,1010.20
2017-11-18T04:38:04.792Z,1010.16
2017-11-18T04:39:04.783Z,1010.12
2017-11-18T04:40:04.781Z,1010.10
2017-11-18T04:41:04.771Z,1010.07
2017-11-18T04:42:04.762Z,1010.04
2017-11-18T04:43:04.757Z,1010.07
2017-11-18T04:44:04.751Z,1010.00
2017-11-18T04:45:04.743Z,1010.02
2017-11-18T04:46:04.736Z,1010.04
2017-11-18T04:47:04.738Z,1010.02
2017-11-18T04:48:04.724Z,1009.94
2017-11-18T04:49:04.717Z,1009.96
2017-11-18T04:50:04.711Z,1009.96
2017-11-18T04:51:04.714Z,1009.91
2017-11-18T04:52:04.696Z,1009.88
2017-11-18T04:53:04.692Z,1009.93
2017-11-18T04:54:04.692Z,1009.92
2017-11-18T04:55:04.677Z,1009.87
2017-11-18T04:56:04.671Z,1009.88
2017-11-18T04:57:04.664Z,1009.87
2017-11-18T04:58:04.656Z,1009.91
2017-11-18T04:59:04.650Z,1009.85
2017-11-18T05:00:04.644Z,1009.83
2017-11-18T05:01:04.638Z,1009.81
2017-11-18T05:02:04.631Z,1009.79
2017-11-18T05:03:04.624Z,1009.85
2017-11-18T05:04:04.617Z,1009.79
2017-11-18T05:05:04.612Z,1009.79
2017-11-18T05:06:04.603Z,1009.81
2017-11-18T05:07:04.597Z,1009.78
2017-11-18T05:08:04.606Z,1009.75
2017-11-18T05:09:04.585Z,1009.77
2017-11-18T05:10:04.577Z,1009.75
2017-11-18T05:11:04.579Z,1009.75
2017-11-18T05:12:04.565Z,1009.76
2017-11-18T05:13:04.557Z,1009.76
2017-11-18T05:14:04.550Z,1009.75
2017-11-18T05:15:04.546Z,1009.74
2017-11-18T05:16:04.538Z,1009.72
2017-11-18T05:17:04.531Z,1009.76
2017-11-18T05:18:04.524Z,1009.74
2017-11-18T05:19:04.517Z,1009.70
2017-11-18T05:20:04.511Z,1009.70
2017-11-18T05:21:04.504Z,1009.65
2017-11-18T05:22:04.498Z,1009.66
2017-11-18T05:23:04.491Z,1009.66
2017-11-18T05:24:04.483Z,1009.62
2017-11-18T05:25:04.479Z,1009.65
2017-11-18T05:26:04.471Z,1009.60
2017-11-18T05:27:04.464Z,1009.62
2017-11-18T05:28:04.457Z,1009.60
2017-11-18T05:29:04.451Z,1009.59
2017-11-18T05:30:04.441Z,1009.58
2017-11-18T05:31:04.438Z,1009.57
2017-11-18T05:32:04.430Z,1009.52
2017-11-18T05:33:04.427Z,1009.51
2017-11-18T05:34:04.416Z,1009.52
2017-11-18T05:35:04.410Z,1009.46
2017-11-18T05:36:04.404Z,1009.47
2017-11-18T05:37:04.398Z,1009.43
2017-11-18T05:38:04.388Z,1009.44
2017-11-18T05:39:04.383Z,1009.44
2017-11-18T05:40:04.385Z,1009.45
2017-11-18T05:41:04.370Z,1009.42
2017-11-18T05:42:04.363Z,1009.52
2017-11-18T05:43:04.357Z,1009.45
2017-11-18T05:44:04.350Z,1009.41
2017-11-18T05:45:04.344Z,1009.45
2017-11-18T05:46:04.337Z,1009.41
2017-11-18T05:47:04.328Z,1009.41
2017-11-18T05:48:04.323Z,1009.38
2017-11-18T05:49:04.316Z,1009.32
2017-11-18T05:50:04.311Z,1009.30
2017-11-18T05:51:04.303Z,1009.27
2017-11-18T05:52:04.295Z,1009.27
2017-11-18T05:53:04.289Z,1009.26
2017-11-18T05:54:04.284Z,1009.25
2017-11-18T05:55:04.276Z,1009.26
2017-11-18T05:56:04.269Z,1009.25
2017-11-18T05:57:04.262Z,1009.27
2017-11-18T05:58:04.255Z,1009.26
2017-11-18T05:59:04.248Z,1009.27
2017-11-18T06:00:04.244Z,1009.24
2017-11-18T06:01:04.235Z,1009.18
2017-11-18T06:02:04.229Z,1009.17
2017-11-18T06:03:04.221Z,1009.17
2017-11-18T06:04:04.216Z,1009.16
2017-11-18T06:05:04.215Z,1009.17
2017-11-18T06:06:04.202Z,1009.14
2017-11-18T06:07:04.195Z,1009.11
2017-11-18T06:08:04.188Z,1009.09
2017-11-18T06:09:04.182Z,1009.10
2017-11-18T06:10:04.174Z,1009.03
2017-11-18T06:11:04.168Z,1009.05
2017-11-18T06:12:04.162Z,1009.05
2017-11-18T06:13:04.154Z,1009.06
2017-11-18T06:14:04.147Z,1009.01
2017-11-18T06:15:04.141Z,1009.03
2017-11-18T06:16:04.134Z,1009.06
2017-11-18T06:17:04.135Z,1009.03
2017-11-18T06:18:04.120Z,1009.00
2017-11-18T06:19:04.118Z,1009.01
2017-11-18T06:20:04.107Z,1008.96
2017-11-18T06:21:04.102Z,1009.03
2017-11-18T06:22:04.092Z,1009.00
2017-11-18T06:23:04.087Z,1009.00
2017-11-18T06:24:04.081Z,1008.94
2017-11-18T06:25:04.075Z,1008.99
2017-11-18T06:26:04.066Z,1008.95
2017-11-18T06:27:04.062Z,1008.96
2017-11-18T06:28:04.052Z,1008.90
2017-11-18T06:29:04.047Z,1008.93
2017-11-18T06:30:04.040Z,1008.92
2017-11-18T06:31:04.033Z,1008.94
2017-11-18T06:32:04.025Z,1008.93
2017-11-18T06:33:04.019Z,1008.94
2017-11-18T06:34:04.012Z,1008.91
2017-11-18T06:35:04.006Z,1008.90
2017-11-18T06:36:04.000Z,1008.92
2017-11-18T06:37:03.993Z,1008.91
2017-11-18T06:38:03.984Z,1008.83
2017-11-18T06:39:03.977Z,1008.83
2017-11-18T06:40:03.972Z,1008.87
2017-11-18T06:41:03.966Z,1008.88
2017-11-18T06:42:03.958Z,1008.93
2017-11-18T06:43:03.952Z,1008.90
2017-11-18T06:44:03.945Z,1008.94
2017-11-18T06:45:03.939Z,1008.94
2017-11-18T06:46:03.937Z,1008.89
2017-11-18T06:47:03.926Z,1008.87
2017-11-18T06:48:03.919Z,1008.92
2017-11-18T06:49:03.912Z,1008.95
2017-11-18T06:50:03.905Z,1008.92
2017-11-18T06:51:03.898Z,1008.88
2017-11-18T06:52:03.890Z,1008.91
2017-11-18T06:53:03.884Z,1008.92
2017-11-18T06:54:03.878Z,1008.91
2017-11-18T06:55:03.871Z,1008.94
2017-11-18T06:56:03.865Z,1008.93
2017-11-18T06:57:03.859Z,1008.92
2017-11-18T06:58:03.850Z,1008.92
2017-11-18T06:59:03.846Z,1008.92
2017-11-18T07:00:03.841Z,1008.92
2017-11-18T07:01:03.830Z,1008.96
2017-11-18T07:02:03.824Z,1008.96
2017-11-18T07:03:03.817Z,1008.96
2017-11-18T07:04:03.810Z,1008.99
2017-11-18T07:05:03.804Z,1008.94
2017-11-18T07:06:03.796Z,1009.00
2017-11-18T07:07:03.790Z,1008.97
2017-11-18T07:08:03.784Z,1009.00
2017-11-18T07:09:03.777Z,1009.01
2017-11-18T07:10:03.770Z,1008.96
2017-11-18T07:11:03.764Z,1008.96
2017-11-18T07:12:03.756Z,1008.93
2017-11-18T07:13:03.750Z,1008.97
2017-11-18T07:14:03.743Z,1008.98
2017-11-18T07:15:03.739Z,1008.95
2017-11-18T07:16:03.731Z,1008.94
2017-11-18T07:17:03.724Z,1008.92
2017-11-18T07:18:03.716Z,1008.89
2017-11-18T07:19:03.717Z,1008.93
2017-11-18T07:20:03.703Z,1008.88
2017-11-18T07:21:03.696Z,1008.92
2017-11-18T07:22:03.689Z,1008.91
2017-11-18T07:23:03.683Z,1008.88
2017-11-18T07:24:03.676Z,1008.94
2017-11-18T07:25:03.672Z,1008.88
2017-11-18T07:26:03.662Z,1008.90
2017-11-18T07:27:03.655Z,1008.90
2017-11-18T07:28:03.650Z,1008.85
2017-11-18T07:29:03.641Z,1008.82
2017-11-18T07:30:03.637Z,1008.85
2017-11-18T07:31:03.629Z,1008.79
2017-11-18T07:32:03.623Z,1008.79
2017-11-18T07:33:03.616Z,1008.76
2017-11-18T07:34:03.609Z,1008.79
2017-11-18T07:35:03.601Z,1008.70
2017-11-18T07:36:03.596Z,1008.73
2017-11-18T07:37:03.589Z,1008.73
2017-11-18T07:38:03.582Z,1008.71
2017-11-18T07:39:03.574Z,1008.74
2017-11-18T07:40:03.569Z,1008.68
2017-11-18T07:41:03.569Z,1008.68
2017-11-18T07:42:03.553Z,1008.64
2017-11-18T07:43:03.549Z,1008.61
2017-11-18T07:44:03.548Z,1008.67
2017-11-18T07:45:03.536Z,1008.60
2017-11-18T07:46:03.531Z,1008.61
2017-11-18T07:47:03.521Z,1008.60
2017-11-18T07:48:03.516Z,1008.59
2017-11-18T07:49:03.512Z,1008.62
2017-11-18T07:50:03.502Z,1008.55
2017-11-18T07:51:03.495Z,1008.57
2017-11-18T07:52:03.489Z,1008.62
2017-11-18T07:53:03.483Z,1008.59
2017-11-18T07:54:03.474Z,1008.59
2017-11-18T07:55:03.469Z,1008.52
2017-11-18T07:56:03.462Z,1008.51
2017-11-18T07:57:03.456Z,1008.48
2017-11-18T07:58:03.449Z,1008.51
2017-11-18T07:59:03.442Z,1008.48
2017-11-18T08:00:03.437Z,1008.51
2017-11-18T08:01:03.429Z,1008.53
2017-11-18T08:02:03.422Z,1008.50
2017-11-18T08:03:03.416Z,1008.48
2017-11-18T08:04:03.409Z,1008.47
2017-11-18T08:05:03.402Z,1008.45
2017-11-18T08:06:03.395Z,1008.47
2017-11-18T08:07:03.390Z,1008.46
2017-11-18T08:08:03.387Z,1008.47
2017-11-18T08:09:03.376Z,1008.45
2017-11-18T08:10:03.377Z,1008.45
2017-11-18T08:11:03.362Z,1008.48
2017-11-18T08:12:03.356Z,1008.49
2017-11-18T08:13:03.350Z,1008.47
2017-11-18T08:14:03.342Z,1008.46
2017-11-18T08:15:03.336Z,1008.49
2017-11-18T08:16:03.330Z,1008.47
2017-11-18T08:17:03.324Z,1008.40
2017-11-18T08:18:03.316Z,1008.41
2017-11-18T08:19:03.309Z,1008.36
2017-11-18T08:20:03.302Z,1008.39
2017-11-18T08:21:03.296Z,1008.39
2017-11-18T08:22:03.289Z,1008.40
2017-11-18T08:23:03.282Z,1008.39
2017-11-18T08:24:03.277Z,1008.33
2017-11-18T08:25:03.271Z,1008.43
2017-11-18T08:26:03.262Z,1008.37
2017-11-18T08:27:03.256Z,1008.36
2017-11-18T08:28:03.250Z,1008.30
2017-11-18T08:29:03.244Z,1008.32
2017-11-18T08:30:03.236Z,1008.29
2017-11-18T08:31:03.230Z,1008.30
2017-11-18T08:32:03.224Z,1008.30
2017-11-18T08:33:03.223Z,1008.26
2017-11-18T08:34:03.209Z,1008.23
2017-11-18T08:35:03.202Z,1008.23
2017-11-18T08:36:03.198Z,1008.20
2017-11-18T08:37:03.190Z,1008.20
2017-11-18T08:38:03.184Z,1008.21
2017-11-18T08:39:03.177Z,1008.16
2017-11-18T08:40:03.170Z,1008.17
2017-11-18T08:41:03.166Z,1008.16
2017-11-18T08:42:03.157Z,1008.02
2017-11-18T08:43:03.151Z,1008.03
2017-11-18T08:44:03.144Z,1008.02
2017-11-18T08:45:03.139Z,1008.02
2017-11-18T08:46:03.129Z,1008.03
2017-11-18T08:47:03.131Z,1008.06
2017-11-18T08:48:03.118Z,1008.00
2017-11-18T08:49:03.112Z,1008.00
2017-11-18T08:50:03.104Z,1007.94
2017-11-18T08:51:03.102Z,1007.99
2017-11-18T08:52:03.092Z,1007.94
2017-11-18T08:53:03.085Z,1007.97
2017-11-18T08:54:03.079Z,1007.94
2017-11-18T08:55:03.072Z,1007.82
2017-11-18T08:56:03.065Z,1007.77
2017-11-18T08:57:03.060Z,1007.70
2017-11-18T08:58:03.053Z,1007.74
2017-11-18T08:59:03.046Z,1007.75
2017-11-18T09:00:03.046Z,1007.74
2017-11-18T09:01:03.034Z,1007.72
2017-11-18T09:02:03.028Z,1007.64
2017-11-18T09:03:03.022Z,1007.70
2017-11-18T09:04:03.014Z,1007.70
2017-11-18T09:05:03.012Z,1007.65
2017-11-18T09:06:03.000Z,1007.66
2017-11-18T09:07:02.995Z,1007.60
2017-11-18T09:08:02.990Z,1007.57
2017-11-18T09:09:02.983Z,1007.53
2017-11-18T09:10:02.978Z,1007.59
2017-11-18T09:11:02.970Z,1007.53
2017-11-18T09:12:02.965Z,1007.55
2017-11-18T09:13:02.965Z,1007.51
2017-11-18T09:14:02.953Z,1007.48
2017-11-18T09:15:02.947Z,1007.48
2017-11-18T09:16:02.939Z,1007.45
2017-11-18T09:17:02.934Z,1007.47
2017-11-18T09:18:02.927Z,1007.48
2017-11-18T09:19:02.920Z,1007.45
2017-11-18T09:20:02.917Z,1007.46
2017-11-18T09:21:02.913Z,1007.45
2017-11-18T09:22:02.901Z,1007.47
2017-11-18T09:23:02.896Z,1007.49
2017-11-18T09:24:02.889Z,1007.55
2017-11-18T09:25:02.884Z,1007.50
2017-11-18T09:26:02.879Z,1007.56
2017-11-18T09:27:02.871Z,1007.50
2017-11-18T09:28:02.868Z,1007.57
2017-11-18T09:29:02.858Z,1007.56
2017-11-18T09:30:02.872Z,1007.53
2017-11-18T09:31:02.846Z,1007.53
2017-11-18T09:32:02.840Z,1007.55
2017-11-18T09:33:02.835Z,1007.55
2017-11-18T09:34:02.828Z,1007.54
2017-11-18T09:35:02.823Z,1007.49
2017-11-18T09:36:02.815Z,1007.48
2017-11-18T09:37:02.810Z,1007.46
2017-11-18T09:38:02.805Z,1007.56
2017-11-18T09:39:02.798Z,1007.52
2017-11-18T09:40:02.794Z,1007.48
2017-11-18T09:41:02.786Z,1007.44
2017-11-18T09:42:02.779Z,1007.45
2017-11-18T09:43:02.778Z,1007.46
2017-11-18T09:44:02.767Z,1007.42
2017-11-18T09:45:02.762Z,1007.35
2017-11-18T09:46:02.762Z,1007.41
2017-11-18T09:47:02.748Z,1007.38
2017-11-18T09:48:02.747Z,1007.34
2017-11-18T09:49:02.739Z,1007.34
2017-11-18T09:50:02.732Z,1007.39
2017-11-18T09:51:02.725Z,1007.45
2017-11-18T09:52:02.719Z,1007.46
2017-11-18T09:53:02.717Z,1007.39
2017-11-18T09:54:02.706Z,1007.32
2017-11-18T09:55:02.701Z,1007.31
2017-11-18T09:56:02.695Z,1007.33
2017-11-18T09:57:02.689Z,1007.48
2017-11-18T09:58:02.683Z,1007.39
2017-11-18T09:59:02.677Z,1007.38
2017-11-18T10:00:02.680Z,1007.36
2017-11-18T10:01:02.666Z,1007.40
2017-11-18T10:02:02.657Z,1007.31
2017-11-18T10:03:02.651Z,1007.31
2017-11-18T10:04:02.647Z,1007.33
2017-11-18T10:05:02.647Z,1007.36
2017-11-18T10:06:02.635Z,1007.36
2017-11-18T10:07:02.629Z,1007.39
2017-11-18T10:08:02.624Z,1007.38
2017-11-18T10:09:02.619Z,1007.34
2017-11-18T10:10:02.612Z,1007.38
2017-11-18T10:11:02.607Z,1007.32
2017-11-18T10:12:02.602Z,1007.29
2017-11-18T10:13:02.595Z,1007.28
2017-11-18T10:14:02.588Z,1007.25
2017-11-18T10:15:02.583Z,1007.21
2017-11-18T10:16:02.577Z,1007.25
2017-11-18T10:17:02.570Z,1007.17
2017-11-18T10:18:02.565Z,1007.15
2017-11-18T10:19:02.559Z,1007.21
2017-11-18T10:20:02.553Z,1007.16
2017-11-18T10:21:02.551Z,1007.15
2017-11-18T10:22:02.543Z,1007.04
2017-11-18T10:23:02.536Z,1006.99
2017-11-18T10:24:02.532Z,1006.93
2017-11-18T10:25:02.526Z,1006.88
2017-11-18T10:26:02.525Z,1006.86
2017-11-18T10:27:02.514Z,1006.88
2017-11-18T10:28:02.513Z,1007.35
2017-11-18T10:29:02.504Z,1007.20
2017-11-18T10:30:02.496Z,1007.09
2017-11-18T10:31:02.491Z,1006.87
2017-11-18T10:32:02.486Z,1006.92
2017-11-18T10:33:02.482Z,1006.95
2017-11-18T10:34:02.476Z,1006.95
2017-11-18T10:35:02.475Z,1006.91
2017-11-18T10:36:02.466Z,1007.01
2017-11-18T10:37:02.462Z,1006.98
2017-11-18T10:38:02.455Z,1006.89
2017-11-18T10:39:02.450Z,1006.86
2017-11-18T10:40:02.445Z,1006.81
2017-11-18T10:41:02.439Z,1006.71
2017-11-18T10:42:02.434Z,1006.63
2017-11-18T10:43:02.430Z,1006.61
2017-11-18T10:44:02.423Z,1006.70
2017-11-18T10:45:02.418Z,1006.75
2017-11-18T10:46:02.414Z,1006.77
2017-11-18T10:47:02.407Z,1006.81
2017-11-18T10:48:02.408Z,1006.85
2017-11-18T10:49:02.398Z,1006.86
2017-11-18T10:50:02.393Z,1006.81
2017-11-18T10:51:02.388Z,1006.69
2017-11-18T10:52:02.382Z,1006.72
2017-11-18T10:53:02.377Z,1006.79
2017-11-18T10:54:02.373Z,1006.73
2017-11-18T10:55:02.378Z,1006.78
2017-11-18T10:56:02.359Z,1006.68
2017-11-18T10:57:02.357Z,1006.69
2017-11-18T10:58:02.349Z,1006.64
2017-11-18T10:59:02.345Z,1006.48
2017-11-18T11:00:02.341Z,1006.54
2017-11-18T11:01:02.336Z,1006.61
2017-11-18T11:02:02.331Z,1006.59
2017-11-18T11:03:02.324Z,1006.60
2017-11-18T11:04:02.321Z,1006.55
2017-11-18T11:05:02.318Z,1006.51
2017-11-18T11:06:02.309Z,1006.55
2017-11-18T11:07:02.302Z,1006.58
2017-11-18T11:08:02.298Z,1006.48
2017-11-18T11:09:02.293Z,1006.44
2017-11-18T11:10:02.287Z,1006.43
2017-11-18T11:11:02.284Z,1006.43
2017-11-18T11:12:02.279Z,1006.37
2017-11-18T11:13:02.275Z,1006.34
2017-11-18T11:14:02.268Z,1006.36
2017-11-18T11:15:02.262Z,1006.28
2017-11-18T11:16:02.256Z,1006.22
2017-11-18T11:17:02.253Z,1006.24
2017-11-18T11:18:02.246Z,1006.21
2017-11-18T11:19:02.250Z,1006.21
2017-11-18T11:20:02.236Z,1006.21
2017-11-18T11:21:02.231Z,1006.11
2017-11-18T11:22:02.225Z,1006.08
2017-11-18T11:23:02.221Z,1006.14
2017-11-18T11:24:02.217Z,1006.05
2017-11-18T11:25:02.223Z,1005.98
2017-11-18T11:26:02.206Z,1005.94
2017-11-18T11:27:02.200Z,1005.95
2017-11-18T11:28:02.195Z,1005.94
2017-11-18T11:29:02.190Z,1005.97
2017-11-18T11:30:02.184Z,1006.12
2017-11-18T11:31:02.180Z,1006.05
2017-11-18T11:32:02.178Z,1006.11
2017-11-18T11:33:02.168Z,1005.97
2017-11-18T11:34:02.164Z,1006.21
2017-11-18T11:35:02.159Z,1006.21
2017-11-18T11:36:02.160Z,1006.00
2017-11-18T11:37:02.150Z,1005.96
2017-11-18T11:38:02.146Z,1006.10
2017-11-18T11:39:02.139Z,1006.04
2017-11-18T11:40:02.141Z,1006.01
2017-11-18T11:41:02.127Z,1005.89
2017-11-18T11:42:02.123Z,1005.93
2017-11-18T11:43:02.118Z,1005.89
2017-11-18T11:44:02.120Z,1005.88
2017-11-18T11:45:02.109Z,1005.83
2017-11-18T11:46:02.103Z,1005.72
2017-11-18T11:47:02.103Z,1005.73
2017-11-18T11:48:02.093Z,1005.77
2017-11-18T11:49:02.089Z,1005.75
2017-11-18T11:50:02.085Z,1005.59
2017-11-18T11:51:02.078Z,1005.66
2017-11-18T11:52:02.073Z,1005.70
2017-11-18T11:53:02.068Z,1005.65
2017-11-18T11:54:02.065Z,1005.64
2017-11-18T11:55:02.059Z,1005.62
2017-11-18T11:56:02.054Z,1005.60
2017-11-18T11:57:02.050Z,1005.62
2017-11-18T11:58:02.044Z,1005.57
2017-11-18T11:59:02.038Z,1005.50
2017-11-18T12:00:02.033Z,1005.57
2017-11-18T12:01:02.030Z,1005.51
2017-11-18T12:02:02.023Z,1005.43
2017-11-18T12:03:02.019Z,1005.48
2017-11-18T12:04:02.016Z,1005.44
2017-11-18T12:05:02.015Z,1005.40